Terminal Aerodrome Forecast
Issued by NWS Blacksburg, VA

Current Version | Previous Version | Text Only | Print | Product List | Glossary Off
Versions: 1 2 3 4 5 6 7 8 9 10 11 12 13 14 15 16 17 18 19 20 21 22 23 24 25 26 27 28 29 30 31 32 33 34 35 36 37

000
FTUS41 KRNK 272337
TAFBLF
TAF
KBLF 272337Z 2800/2824 32011G21KT P6SM -SHSN OVC035
      TEMPO 2800/2804 5SM -SHSN OVC025
     FM280700 32010G20KT P6SM OVC025
     FM281400 31012G22KT P6SM BKN030
     FM281700 31011G21KT P6SM SCT030=

USA.gov is the U.S. government's official web portal to all federal, state and local government web resources and services.